Britt, Canada
Current Conditions -  °F | °C
As of 2:00 PM on Thursday 30 Oct 2014 (Local Time) from CYSB Reporting Station
Overcast Overcast  
Wind Chill: 31°   Ceiling: 6700
Heat Index: 36°   Visibility: 20mi
Dew Point: 27°   Wind: 6mph
Humidity: 70%   Direction: 260°W
Pressure: 30.02"   Gusts: NA
Location:  45.78°N, 80.53°W
Report Text: CYSB 301800Z 26005KT 230V300 20SM SCT023 OVC067 02/M03 A3002 RMK SC4AC4 SLP182
Loading
Personal Weather Stations






























Interactive Weather Map
Tropical Storm Tracking
New forecast layout! Learn more

10-Day Weather Forecast

Advertisements
Track Severe Weather on mobile